sensor_id;sensor_type;location;lat;lon;timestamp;pressure;altitude;pressure_sealevel;temperature;humidity
51147;BME280;37207;53.060;18.726;2023-09-07T00:00:49;101723.12;;;17.25;75.87
51147;BME280;37207;53.060;18.726;2023-09-07T00:03:34;101722.30;;;17.24;75.95
51147;BME280;37207;53.060;18.726;2023-09-07T00:06:01;101722.85;;;17.23;76.02
51147;BME280;37207;53.060;18.726;2023-09-07T00:08:27;101724.48;;;17.21;76.07
51147;BME280;37207;53.060;18.726;2023-09-07T00:10:54;101721.67;;;17.20;76.04
51147;BME280;37207;53.060;18.726;2023-09-07T00:13:20;101726.60;;;17.20;76.08
51147;BME280;37207;53.060;18.726;2023-09-07T00:15:47;101726.34;;;17.21;76.21
51147;BME280;37207;53.060;18.726;2023-09-07T00:18:13;101725.58;;;17.17;76.13
51147;BME280;37207;53.060;18.726;2023-09-07T00:20:40;101725.11;;;17.16;76.12
51147;BME280;37207;53.060;18.726;2023-09-07T00:23:07;101723.64;;;17.15;76.17
51147;BME280;37207;53.060;18.726;2023-09-07T00:25:33;101721.27;;;17.15;76.27
51147;BME280;37207;53.060;18.726;2023-09-07T00:28:00;101723.10;;;17.13;76.31
51147;BME280;37207;53.060;18.726;2023-09-07T00:30:26;101724.55;;;17.09;76.43
51147;BME280;37207;53.060;18.726;2023-09-07T00:32:53;101729.27;;;17.08;76.62
51147;BME280;37207;53.060;18.726;2023-09-07T00:35:20;101729.42;;;17.06;76.51
51147;BME280;37207;53.060;18.726;2023-09-07T00:37:46;101734.38;;;17.04;76.67
51147;BME280;37207;53.060;18.726;2023-09-07T00:40:13;101728.13;;;17.01;76.68
51147;BME280;37207;53.060;18.726;2023-09-07T00:42:40;101731.02;;;16.97;76.77
51147;BME280;37207;53.060;18.726;2023-09-07T00:45:08;101735.67;;;16.92;76.82
51147;BME280;37207;53.060;18.726;2023-09-07T00:47:34;101738.75;;;16.88;76.93
51147;BME280;37207;53.060;18.726;2023-09-07T00:50:06;101740.52;;;16.86;77.02
51147;BME280;37207;53.060;18.726;2023-09-07T00:52:34;101737.27;;;16.86;77.16
51147;BME280;37207;53.060;18.726;2023-09-07T00:55:03;101735.90;;;16.86;77.10
51147;BME280;37207;53.060;18.726;2023-09-07T00:57:30;101739.55;;;16.86;77.28
51147;BME280;37207;53.060;18.726;2023-09-07T00:59:57;101739.30;;;16.86;77.30
51147;BME280;37207;53.060;18.726;2023-09-07T01:02:24;101736.88;;;16.87;77.15
51147;BME280;37207;53.060;18.726;2023-09-07T01:04:52;101735.50;;;16.86;77.27
51147;BME280;37207;53.060;18.726;2023-09-07T01:07:25;101732.89;;;16.83;77.32
51147;BME280;37207;53.060;18.726;2023-09-07T01:09:58;101736.19;;;16.79;77.39
51147;BME280;37207;53.060;18.726;2023-09-07T01:12:26;101729.39;;;16.76;77.44
51147;BME280;37207;53.060;18.726;2023-09-07T01:14:53;101732.52;;;16.75;77.50
51147;BME280;37207;53.060;18.726;2023-09-07T01:17:21;101730.54;;;16.75;77.61
51147;BME280;37207;53.060;18.726;2023-09-07T01:19:49;101729.11;;;16.74;77.62
51147;BME280;37207;53.060;18.726;2023-09-07T01:22:18;101730.07;;;16.72;77.72
51147;BME280;37207;53.060;18.726;2023-09-07T01:24:45;101733.70;;;16.69;77.78
51147;BME280;37207;53.060;18.726;2023-09-07T01:27:13;101734.46;;;16.67;77.92
51147;BME280;37207;53.060;18.726;2023-09-07T01:29:40;101729.89;;;16.66;77.80
51147;BME280;37207;53.060;18.726;2023-09-07T01:32:07;101725.27;;;16.65;77.98
51147;BME280;37207;53.060;18.726;2023-09-07T01:34:37;101726.31;;;16.63;77.99
51147;BME280;37207;53.060;18.726;2023-09-07T01:37:03;101723.04;;;16.58;78.03
51147;BME280;37207;53.060;18.726;2023-09-07T01:39:30;101723.16;;;16.52;78.09
51147;BME280;37207;53.060;18.726;2023-09-07T01:41:57;101726.59;;;16.49;78.15
51147;BME280;37207;53.060;18.726;2023-09-07T01:44:23;101728.24;;;16.43;78.14
51147;BME280;37207;53.060;18.726;2023-09-07T01:46:50;101727.45;;;16.37;78.12
51147;BME280;37207;53.060;18.726;2023-09-07T01:49:17;101727.78;;;16.34;78.30
51147;BME280;37207;53.060;18.726;2023-09-07T01:51:43;101729.73;;;16.32;78.43
51147;BME280;37207;53.060;18.726;2023-09-07T01:54:10;101726.42;;;16.29;78.47
51147;BME280;37207;53.060;18.726;2023-09-07T01:56:37;101725.11;;;16.25;78.48
51147;BME280;37207;53.060;18.726;2023-09-07T01:59:03;101723.06;;;16.21;78.63
51147;BME280;37207;53.060;18.726;2023-09-07T02:01:31;101726.02;;;16.19;78.52
51147;BME280;37207;53.060;18.726;2023-09-07T02:03:57;101726.81;;;16.15;78.54
51147;BME280;37207;53.060;18.726;2023-09-07T02:06:24;101726.79;;;16.11;78.52
51147;BME280;37207;53.060;18.726;2023-09-07T02:08:50;101731.31;;;16.05;78.63
51147;BME280;37207;53.060;18.726;2023-09-07T02:11:17;101730.20;;;15.98;78.63
51147;BME280;37207;53.060;18.726;2023-09-07T02:13:46;101729.09;;;15.94;78.88
51147;BME280;37207;53.060;18.726;2023-09-07T02:16:13;101729.80;;;15.93;79.11
51147;BME280;37207;53.060;18.726;2023-09-07T02:18:42;101729.91;;;15.92;79.11
51147;BME280;37207;53.060;18.726;2023-09-07T02:21:13;101725.90;;;15.91;79.28
51147;BME280;37207;53.060;18.726;2023-09-07T02:23:40;101723.58;;;15.94;79.21
51147;BME280;37207;53.060;18.726;2023-09-07T02:26:07;101722.98;;;15.95;79.29
51147;BME280;37207;53.060;18.726;2023-09-07T02:28:34;101723.13;;;15.95;79.34
51147;BME280;37207;53.060;18.726;2023-09-07T02:31:04;101727.33;;;15.93;79.34
51147;BME280;37207;53.060;18.726;2023-09-07T02:33:32;101726.81;;;15.90;79.30
51147;BME280;37207;53.060;18.726;2023-09-07T02:35:59;101726.84;;;15.89;79.39
51147;BME280;37207;53.060;18.726;2023-09-07T02:38:26;101723.91;;;15.89;79.51
51147;BME280;37207;53.060;18.726;2023-09-07T02:40:54;101725.21;;;15.88;79.60
51147;BME280;37207;53.060;18.726;2023-09-07T02:43:21;101727.04;;;15.88;79.74
51147;BME280;37207;53.060;18.726;2023-09-07T02:45:49;101728.74;;;15.85;79.61
51147;BME280;37207;53.060;18.726;2023-09-07T02:48:17;101723.98;;;15.80;79.58
51147;BME280;37207;53.060;18.726;2023-09-07T02:50:43;101726.17;;;15.77;79.67
51147;BME280;37207;53.060;18.726;2023-09-07T02:53:15;101726.98;;;15.74;79.84
51147;BME280;37207;53.060;18.726;2023-09-07T02:55:42;101724.55;;;15.74;79.83
51147;BME280;37207;53.060;18.726;2023-09-07T02:58:08;101728.31;;;15.75;80.06
51147;BME280;37207;53.060;18.726;2023-09-07T03:00:35;101732.00;;;15.74;80.11
51147;BME280;37207;53.060;18.726;2023-09-07T03:03:07;101734.10;;;15.71;79.96
51147;BME280;37207;53.060;18.726;2023-09-07T03:05:33;101733.85;;;15.70;80.11
51147;BME280;37207;53.060;18.726;2023-09-07T03:08:00;101732.85;;;15.68;80.15
51147;BME280;37207;53.060;18.726;2023-09-07T03:10:27;101734.56;;;15.66;80.20
51147;BME280;37207;53.060;18.726;2023-09-07T03:12:53;101734.90;;;15.64;80.33
51147;BME280;37207;53.060;18.726;2023-09-07T03:15:21;101736.09;;;15.62;80.29
51147;BME280;37207;53.060;18.726;2023-09-07T03:17:48;101734.65;;;15.60;80.31
51147;BME280;37207;53.060;18.726;2023-09-07T03:20:15;101734.02;;;15.62;80.46
51147;BME280;37207;53.060;18.726;2023-09-07T03:22:46;101733.80;;;15.61;80.59
51147;BME280;37207;53.060;18.726;2023-09-07T03:25:13;101730.64;;;15.59;80.46
51147;BME280;37207;53.060;18.726;2023-09-07T03:27:40;101733.54;;;15.57;80.58
51147;BME280;37207;53.060;18.726;2023-09-07T03:30:09;101734.45;;;15.58;80.58
51147;BME280;37207;53.060;18.726;2023-09-07T03:32:36;101734.09;;;15.58;80.73
51147;BME280;37207;53.060;18.726;2023-09-07T03:35:04;101736.48;;;15.57;80.82
51147;BME280;37207;53.060;18.726;2023-09-07T03:37:35;101736.92;;;15.57;80.88
51147;BME280;37207;53.060;18.726;2023-09-07T03:40:04;101733.45;;;15.55;80.85
51147;BME280;37207;53.060;18.726;2023-09-07T03:42:31;101735.27;;;15.51;80.82
51147;BME280;37207;53.060;18.726;2023-09-07T03:44:58;101730.59;;;15.45;80.75
51147;BME280;37207;53.060;18.726;2023-09-07T03:47:25;101731.27;;;15.41;80.78
51147;BME280;37207;53.060;18.726;2023-09-07T03:49:58;101734.45;;;15.39;80.99
51147;BME280;37207;53.060;18.726;2023-09-07T03:52:26;101737.66;;;15.37;80.90
51147;BME280;37207;53.060;18.726;2023-09-07T03:54:54;101738.23;;;15.37;81.01
51147;BME280;37207;53.060;18.726;2023-09-07T03:57:23;101739.54;;;15.37;81.02
51147;BME280;37207;53.060;18.726;2023-09-07T03:59:49;101744.13;;;15.39;80.91
51147;BME280;37207;53.060;18.726;2023-09-07T04:02:16;101744.48;;;15.42;81.17
51147;BME280;37207;53.060;18.726;2023-09-07T04:04:50;101744.73;;;15.39;80.94
51147;BME280;37207;53.060;18.726;2023-09-07T04:07:17;101747.56;;;15.39;80.87
51147;BME280;37207;53.060;18.726;2023-09-07T04:09:44;101746.50;;;15.39;80.98
51147;BME280;37207;53.060;18.726;2023-09-07T04:12:12;101751.84;;;15.37;80.98
51147;BME280;37207;53.060;18.726;2023-09-07T04:14:38;101756.43;;;15.35;80.85
51147;BME280;37207;53.060;18.726;2023-09-07T04:17:05;101754.47;;;15.36;80.96
51147;BME280;37207;53.060;18.726;2023-09-07T04:19:32;101762.11;;;15.37;81.18
51147;BME280;37207;53.060;18.726;2023-09-07T04:22:00;101762.86;;;15.36;81.32
51147;BME280;37207;53.060;18.726;2023-09-07T04:24:26;101758.94;;;15.37;81.55
51147;BME280;37207;53.060;18.726;2023-09-07T04:27:00;101760.73;;;15.39;81.60
51147;BME280;37207;53.060;18.726;2023-09-07T04:29:28;101761.19;;;15.41;81.67
51147;BME280;37207;53.060;18.726;2023-09-07T04:31:54;101765.09;;;15.43;81.70
51147;BME280;37207;53.060;18.726;2023-09-07T04:34:22;101766.73;;;15.44;81.72
51147;BME280;37207;53.060;18.726;2023-09-07T04:36:49;101764.08;;;15.43;81.85
51147;BME280;37207;53.060;18.726;2023-09-07T04:39:16;101765.50;;;15.43;81.83
51147;BME280;37207;53.060;18.726;2023-09-07T04:41:42;101768.64;;;15.43;81.95
51147;BME280;37207;53.060;18.726;2023-09-07T04:44:09;101768.26;;;15.45;81.91
51147;BME280;37207;53.060;18.726;2023-09-07T04:46:36;101770.08;;;15.46;82.05
51147;BME280;37207;53.060;18.726;2023-09-07T04:49:02;101772.61;;;15.46;82.06
51147;BME280;37207;53.060;18.726;2023-09-07T04:51:29;101772.67;;;15.46;82.22
51147;BME280;37207;53.060;18.726;2023-09-07T04:53:56;101774.52;;;15.48;82.35
51147;BME280;37207;53.060;18.726;2023-09-07T04:56:22;101780.45;;;15.48;82.43
51147;BME280;37207;53.060;18.726;2023-09-07T04:58:49;101778.68;;;15.48;82.35
51147;BME280;37207;53.060;18.726;2023-09-07T05:01:16;101780.27;;;15.51;82.49
51147;BME280;37207;53.060;18.726;2023-09-07T05:03:43;101782.90;;;15.54;82.43
51147;BME280;37207;53.060;18.726;2023-09-07T05:06:11;101780.36;;;15.56;82.38
51147;BME280;37207;53.060;18.726;2023-09-07T05:08:38;101783.98;;;15.60;82.54
51147;BME280;37207;53.060;18.726;2023-09-07T05:11:04;101783.81;;;15.63;82.53
51147;BME280;37207;53.060;18.726;2023-09-07T05:13:31;101785.52;;;15.67;82.79
51147;BME280;37207;53.060;18.726;2023-09-07T05:16:00;101785.25;;;15.71;82.80
51147;BME280;37207;53.060;18.726;2023-09-07T05:18:27;101789.16;;;15.73;82.88
51147;BME280;37207;53.060;18.726;2023-09-07T05:20:54;101788.52;;;15.74;83.03
51147;BME280;37207;53.060;18.726;2023-09-07T05:23:21;101793.60;;;15.78;83.15
51147;BME280;37207;53.060;18.726;2023-09-07T05:25:53;101793.32;;;15.80;83.28
51147;BME280;37207;53.060;18.726;2023-09-07T05:28:22;101793.29;;;15.82;83.62
51147;BME280;37207;53.060;18.726;2023-09-07T05:30:49;101794.80;;;15.82;83.46
51147;BME280;37207;53.060;18.726;2023-09-07T05:33:17;101799.05;;;15.84;83.74
51147;BME280;37207;53.060;18.726;2023-09-07T05:35:45;101796.86;;;15.89;83.88
51147;BME280;37207;53.060;18.726;2023-09-07T05:38:14;101792.48;;;15.95;83.97
51147;BME280;37207;53.060;18.726;2023-09-07T05:40:44;101796.21;;;15.98;84.06
51147;BME280;37207;53.060;18.726;2023-09-07T05:43:11;101798.23;;;16.02;83.99
51147;BME280;37207;53.060;18.726;2023-09-07T05:45:41;101799.19;;;16.07;84.05
51147;BME280;37207;53.060;18.726;2023-09-07T05:48:08;101798.09;;;16.12;84.02
51147;BME280;37207;53.060;18.726;2023-09-07T05:50:36;101799.91;;;16.18;84.04
51147;BME280;37207;53.060;18.726;2023-09-07T05:53:03;101801.91;;;16.21;84.07
51147;BME280;37207;53.060;18.726;2023-09-07T05:55:31;101799.20;;;16.23;84.11
51147;BME280;37207;53.060;18.726;2023-09-07T05:57:58;101799.83;;;16.25;84.12
51147;BME280;37207;53.060;18.726;2023-09-07T06:00:26;101800.75;;;16.28;84.20
51147;BME280;37207;53.060;18.726;2023-09-07T06:02:53;101801.43;;;16.32;84.37
51147;BME280;37207;53.060;18.726;2023-09-07T06:05:20;101807.50;;;16.37;84.39
51147;BME280;37207;53.060;18.726;2023-09-07T06:07:47;101809.57;;;16.43;84.42
51147;BME280;37207;53.060;18.726;2023-09-07T06:10:15;101809.88;;;16.52;84.51
51147;BME280;37207;53.060;18.726;2023-09-07T06:12:45;101812.23;;;16.61;84.50
51147;BME280;37207;53.060;18.726;2023-09-07T06:15:11;101811.46;;;16.68;84.38
51147;BME280;37207;53.060;18.726;2023-09-07T06:17:38;101814.81;;;16.78;84.37
51147;BME280;37207;53.060;18.726;2023-09-07T06:20:05;101818.30;;;16.87;84.34
51147;BME280;37207;53.060;18.726;2023-09-07T06:22:32;101819.88;;;16.95;84.39
51147;BME280;37207;53.060;18.726;2023-09-07T06:24:59;101820.02;;;17.05;84.39
51147;BME280;37207;53.060;18.726;2023-09-07T06:27:25;101825.23;;;17.14;84.25
51147;BME280;37207;53.060;18.726;2023-09-07T06:29:52;101825.91;;;17.23;84.20
51147;BME280;37207;53.060;18.726;2023-09-07T06:32:19;101828.84;;;17.33;84.28
51147;BME280;37207;53.060;18.726;2023-09-07T06:34:45;101833.14;;;17.43;84.20
51147;BME280;37207;53.060;18.726;2023-09-07T06:37:12;101836.31;;;17.53;84.20
51147;BME280;37207;53.060;18.726;2023-09-07T06:39:40;101836.10;;;17.66;84.18
51147;BME280;37207;53.060;18.726;2023-09-07T06:42:10;101832.88;;;17.89;84.45
51147;BME280;37207;53.060;18.726;2023-09-07T06:44:44;101831.42;;;18.45;84.20
51147;BME280;37207;53.060;18.726;2023-09-07T06:47:12;101838.73;;;20.04;82.74
51147;BME280;37207;53.060;18.726;2023-09-07T06:49:38;101842.66;;;21.56;80.37
51147;BME280;37207;53.060;18.726;2023-09-07T06:52:05;101846.23;;;22.43;77.92
51147;BME280;37207;53.060;18.726;2023-09-07T06:54:34;101839.75;;;22.49;75.76
51147;BME280;37207;53.060;18.726;2023-09-07T06:57:01;101839.02;;;22.50;75.48
51147;BME280;37207;53.060;18.726;2023-09-07T06:59:27;101842.91;;;22.24;74.40
51147;BME280;37207;53.060;18.726;2023-09-07T07:01:54;101841.48;;;21.92;74.44
51147;BME280;37207;53.060;18.726;2023-09-07T07:04:20;101843.41;;;21.70;74.93
51147;BME280;37207;53.060;18.726;2023-09-07T07:06:47;101844.25;;;21.51;74.92
51147;BME280;37207;53.060;18.726;2023-09-07T07:09:14;101843.96;;;21.35;75.01
51147;BME280;37207;53.060;18.726;2023-09-07T07:11:40;101843.70;;;21.19;74.86
51147;BME280;37207;53.060;18.726;2023-09-07T07:14:09;101844.85;;;21.09;75.01
51147;BME280;37207;53.060;18.726;2023-09-07T07:16:38;101845.47;;;21.03;75.06
51147;BME280;37207;53.060;18.726;2023-09-07T07:19:04;101844.61;;;20.98;74.89
51147;BME280;37207;53.060;18.726;2023-09-07T07:21:31;101846.09;;;20.90;74.90
51147;BME280;37207;53.060;18.726;2023-09-07T07:23:57;101846.59;;;20.92;75.49
51147;BME280;37207;53.060;18.726;2023-09-07T07:26:24;101848.40;;;21.06;75.37
51147;BME280;37207;53.060;18.726;2023-09-07T07:28:51;101852.13;;;21.90;75.20
51147;BME280;37207;53.060;18.726;2023-09-07T07:31:17;101852.34;;;23.32;73.64
51147;BME280;37207;53.060;18.726;2023-09-07T07:33:47;101860.61;;;24.65;71.78
51147;BME280;37207;53.060;18.726;2023-09-07T07:36:15;101854.55;;;25.72;69.54
51147;BME280;37207;53.060;18.726;2023-09-07T07:38:41;101854.77;;;26.42;67.45
51147;BME280;37207;53.060;18.726;2023-09-07T07:41:08;101853.80;;;26.92;66.26
51147;BME280;37207;53.060;18.726;2023-09-07T07:43:35;101853.02;;;27.16;64.92
51147;BME280;37207;53.060;18.726;2023-09-07T07:46:01;101858.09;;;27.48;64.62
51147;BME280;37207;53.060;18.726;2023-09-07T07:48:28;101858.33;;;27.61;62.45
51147;BME280;37207;53.060;18.726;2023-09-07T07:50:56;101862.07;;;27.62;61.96
51147;BME280;37207;53.060;18.726;2023-09-07T07:53:22;101859.73;;;27.63;61.70
51147;BME280;37207;53.060;18.726;2023-09-07T07:55:50;101863.91;;;27.71;61.97
51147;BME280;37207;53.060;18.726;2023-09-07T07:58:19;101862.32;;;27.77;61.17
51147;BME280;37207;53.060;18.726;2023-09-07T08:00:46;101864.75;;;27.70;59.70
51147;BME280;37207;53.060;18.726;2023-09-07T08:03:16;101860.17;;;27.65;59.82
51147;BME280;37207;53.060;18.726;2023-09-07T08:05:44;101863.05;;;27.65;59.67
51147;BME280;37207;53.060;18.726;2023-09-07T08:08:11;101857.40;;;27.65;59.09
51147;BME280;37207;53.060;18.726;2023-09-07T08:10:39;101857.48;;;27.65;58.91
51147;BME280;37207;53.060;18.726;2023-09-07T08:13:08;101856.79;;;27.71;58.77
51147;BME280;37207;53.060;18.726;2023-09-07T08:15:36;101863.17;;;27.71;58.07
51147;BME280;37207;53.060;18.726;2023-09-07T08:18:03;101865.95;;;27.77;58.02
51147;BME280;37207;53.060;18.726;2023-09-07T08:20:31;101867.15;;;27.90;57.85
51147;BME280;37207;53.060;18.726;2023-09-07T08:22:59;101859.84;;;28.05;57.72
51147;BME280;37207;53.060;18.726;2023-09-07T08:25:25;101862.16;;;28.22;57.31
51147;BME280;37207;53.060;18.726;2023-09-07T08:27:54;101865.55;;;28.27;56.69
51147;BME280;37207;53.060;18.726;2023-09-07T08:30:24;101864.38;;;28.23;55.79
51147;BME280;37207;53.060;18.726;2023-09-07T08:32:52;101867.77;;;28.30;56.30
51147;BME280;37207;53.060;18.726;2023-09-07T08:35:18;101865.94;;;28.36;56.29
51147;BME280;37207;53.060;18.726;2023-09-07T08:37:45;101864.18;;;28.41;56.19
51147;BME280;37207;53.060;18.726;2023-09-07T08:40:12;101859.88;;;28.52;55.41
51147;BME280;37207;53.060;18.726;2023-09-07T08:42:38;101860.04;;;28.58;55.72
51147;BME280;37207;53.060;18.726;2023-09-07T08:45:08;101864.08;;;28.76;55.42
51147;BME280;37207;53.060;18.726;2023-09-07T08:47:37;101864.27;;;28.91;55.03
51147;BME280;37207;53.060;18.726;2023-09-07T08:50:07;101864.48;;;29.08;54.35
51147;BME280;37207;53.060;18.726;2023-09-07T08:52:35;101862.90;;;29.22;54.08
51147;BME280;37207;53.060;18.726;2023-09-07T08:55:03;101865.17;;;29.33;53.06
51147;BME280;37207;53.060;18.726;2023-09-07T08:57:32;101862.22;;;29.41;53.26
51147;BME280;37207;53.060;18.726;2023-09-07T08:59:59;101861.63;;;29.47;53.75
51147;BME280;37207;53.060;18.726;2023-09-07T09:02:25;101864.48;;;29.47;52.74
51147;BME280;37207;53.060;18.726;2023-09-07T09:04:52;101860.92;;;29.52;52.16
51147;BME280;37207;53.060;18.726;2023-09-07T09:07:20;101867.19;;;29.75;52.82
51147;BME280;37207;53.060;18.726;2023-09-07T09:09:47;101865.45;;;30.08;52.46
51147;BME280;37207;53.060;18.726;2023-09-07T09:12:14;101863.27;;;30.46;51.90
51147;BME280;37207;53.060;18.726;2023-09-07T09:14:44;101859.70;;;31.25;51.10
51147;BME280;37207;53.060;18.726;2023-09-07T09:17:12;101858.15;;;32.29;48.57
51147;BME280;37207;53.060;18.726;2023-09-07T09:19:40;101859.89;;;32.95;47.58
51147;BME280;37207;53.060;18.726;2023-09-07T09:22:11;101856.78;;;33.08;47.15
51147;BME280;37207;53.060;18.726;2023-09-07T09:24:38;101856.67;;;33.14;46.47
51147;BME280;37207;53.060;18.726;2023-09-07T09:27:04;101853.17;;;33.06;46.34
51147;BME280;37207;53.060;18.726;2023-09-07T09:29:35;101853.21;;;32.87;46.41
51147;BME280;37207;53.060;18.726;2023-09-07T09:32:07;101851.77;;;32.69;46.39
51147;BME280;37207;53.060;18.726;2023-09-07T09:34:34;101847.13;;;32.62;46.86
51147;BME280;37207;53.060;18.726;2023-09-07T09:37:02;101842.38;;;32.62;46.16
51147;BME280;37207;53.060;18.726;2023-09-07T09:39:32;101842.48;;;32.72;46.28
51147;BME280;37207;53.060;18.726;2023-09-07T09:42:00;101840.75;;;32.84;46.36
51147;BME280;37207;53.060;18.726;2023-09-07T09:44:28;101836.11;;;32.81;45.53
51147;BME280;37207;53.060;18.726;2023-09-07T09:46:56;101841.65;;;32.59;44.60
51147;BME280;37207;53.060;18.726;2023-09-07T09:49:23;101841.73;;;32.41;44.84
51147;BME280;37207;53.060;18.726;2023-09-07T09:51:50;101839.39;;;32.42;44.99
51147;BME280;37207;53.060;18.726;2023-09-07T09:54:17;101839.25;;;32.49;45.44
51147;BME280;37207;53.060;18.726;2023-09-07T09:56:44;101838.11;;;32.64;45.21
51147;BME280;37207;53.060;18.726;2023-09-07T09:59:13;101835.04;;;32.89;44.50
51147;BME280;37207;53.060;18.726;2023-09-07T10:01:44;101834.55;;;33.06;43.78
51147;BME280;37207;53.060;18.726;2023-09-07T10:04:16;101833.46;;;33.35;44.20
51147;BME280;37207;53.060;18.726;2023-09-07T10:06:54;101832.04;;;33.98;43.75
51147;BME280;37207;53.060;18.726;2023-09-07T10:09:21;101835.05;;;34.85;42.68
51147;BME280;37207;53.060;18.726;2023-09-07T10:11:54;101829.63;;;35.84;41.24
51147;BME280;37207;53.060;18.726;2023-09-07T10:14:21;101832.83;;;36.78;39.56
51147;BME280;37207;53.060;18.726;2023-09-07T10:16:52;101835.84;;;37.75;37.65
51147;BME280;37207;53.060;18.726;2023-09-07T10:19:23;101830.20;;;38.71;36.35
51147;BME280;37207;53.060;18.726;2023-09-07T10:21:52;101823.89;;;39.53;35.18
51147;BME280;37207;53.060;18.726;2023-09-07T10:24:25;101816.41;;;40.27;34.83
51147;BME280;37207;53.060;18.726;2023-09-07T10:27:03;101810.13;;;40.92;32.75
51147;BME280;37207;53.060;18.726;2023-09-07T10:29:50;101811.70;;;41.48;31.82
51147;BME280;37207;53.060;18.726;2023-09-07T10:32:18;101812.61;;;41.85;31.15
51147;BME280;37207;53.060;18.726;2023-09-07T10:34:45;101813.90;;;42.11;30.68
51147;BME280;37207;53.060;18.726;2023-09-07T10:37:13;101809.41;;;42.28;29.93
51147;BME280;37207;53.060;18.726;2023-09-07T10:39:42;101809.34;;;42.43;29.77
51147;BME280;37207;53.060;18.726;2023-09-07T10:42:22;101808.28;;;42.30;29.65
51147;BME280;37207;53.060;18.726;2023-09-07T10:44:50;101812.09;;;42.09;29.42
51147;BME280;37207;53.060;18.726;2023-09-07T10:47:17;101810.91;;;41.66;29.50
51147;BME280;37207;53.060;18.726;2023-09-07T10:49:44;101809.25;;;41.15;30.08
51147;BME280;37207;53.060;18.726;2023-09-07T10:52:11;101806.14;;;40.62;30.10
51147;BME280;37207;53.060;18.726;2023-09-07T10:54:37;101807.27;;;40.01;30.43
51147;BME280;37207;53.060;18.726;2023-09-07T10:57:08;101809.15;;;39.57;31.54
51147;BME280;37207;53.060;18.726;2023-09-07T10:59:35;101802.78;;;39.27;31.80
51147;BME280;37207;53.060;18.726;2023-09-07T11:02:05;101801.48;;;39.01;32.04
51147;BME280;37207;53.060;18.726;2023-09-07T11:04:32;101801.73;;;38.71;32.24
51147;BME280;37207;53.060;18.726;2023-09-07T11:06:59;101801.14;;;38.49;32.93
51147;BME280;37207;53.060;18.726;2023-09-07T11:09:26;101799.56;;;38.36;32.80
51147;BME280;37207;53.060;18.726;2023-09-07T11:11:52;101794.58;;;38.27;32.96
51147;BME280;37207;53.060;18.726;2023-09-07T11:14:21;101796.48;;;38.20;33.10
51147;BME280;37207;53.060;18.726;2023-09-07T11:16:48;101792.36;;;38.09;32.63
51147;BME280;37207;53.060;18.726;2023-09-07T11:19:15;101787.25;;;37.71;32.49
51147;BME280;37207;53.060;18.726;2023-09-07T11:21:41;101783.08;;;37.46;32.78
51147;BME280;37207;53.060;18.726;2023-09-07T11:24:09;101784.05;;;37.26;33.31
51147;BME280;37207;53.060;18.726;2023-09-07T11:26:46;101783.67;;;37.10;33.11
51147;BME280;37207;53.060;18.726;2023-09-07T11:29:14;101781.19;;;36.72;32.70
51147;BME280;37207;53.060;18.726;2023-09-07T11:31:42;101782.63;;;36.43;33.33
51147;BME280;37207;53.060;18.726;2023-09-07T11:34:10;101784.48;;;36.40;33.99
51147;BME280;37207;53.060;18.726;2023-09-07T11:36:38;101781.70;;;36.34;34.20
51147;BME280;37207;53.060;18.726;2023-09-07T11:39:05;101777.42;;;36.03;33.90
51147;BME280;37207;53.060;18.726;2023-09-07T11:41:42;101774.85;;;35.60;34.16
51147;BME280;37207;53.060;18.726;2023-09-07T11:44:09;101776.13;;;35.22;34.64
51147;BME280;37207;53.060;18.726;2023-09-07T11:46:36;101776.25;;;35.22;35.43
51147;BME280;37207;53.060;18.726;2023-09-07T11:49:04;101775.02;;;35.55;35.59
51147;BME280;37207;53.060;18.726;2023-09-07T11:51:35;101773.31;;;35.90;35.03
51147;BME280;37207;53.060;18.726;2023-09-07T11:54:02;101769.33;;;36.31;34.58
51147;BME280;37207;53.060;18.726;2023-09-07T11:56:29;101772.48;;;36.71;34.14
51147;BME280;37207;53.060;18.726;2023-09-07T11:58:55;101771.86;;;37.18;33.24
51147;BME280;37207;53.060;18.726;2023-09-07T12:01:22;101769.54;;;37.52;33.31
51147;BME280;37207;53.060;18.726;2023-09-07T12:03:49;101767.60;;;37.90;33.37
51147;BME280;37207;53.060;18.726;2023-09-07T12:06:15;101771.46;;;38.40;33.16
51147;BME280;37207;53.060;18.726;2023-09-07T12:09:01;101771.14;;;38.89;32.52
51147;BME280;37207;53.060;18.726;2023-09-07T12:11:27;101771.54;;;39.18;31.43
51147;BME280;37207;53.060;18.726;2023-09-07T12:13:54;101768.27;;;39.27;30.72
51147;BME280;37207;53.060;18.726;2023-09-07T12:16:21;101768.39;;;39.34;30.04
51147;BME280;37207;53.060;18.726;2023-09-07T12:18:47;101763.84;;;39.48;30.09
51147;BME280;37207;53.060;18.726;2023-09-07T12:21:14;101764.13;;;39.67;30.44
51147;BME280;37207;53.060;18.726;2023-09-07T12:23:40;101764.50;;;39.31;30.21
51147;BME280;37207;53.060;18.726;2023-09-07T12:26:07;101764.05;;;38.25;31.15
51147;BME280;37207;53.060;18.726;2023-09-07T12:28:34;101759.66;;;37.22;31.96
51147;BME280;37207;53.060;18.726;2023-09-07T12:31:02;101762.85;;;36.22;32.50
51147;BME280;37207;53.060;18.726;2023-09-07T12:33:29;101762.11;;;35.31;33.21
51147;BME280;37207;53.060;18.726;2023-09-07T12:35:56;101759.66;;;34.49;34.20
51147;BME280;37207;53.060;18.726;2023-09-07T12:38:23;101761.83;;;33.77;35.13
51147;BME280;37207;53.060;18.726;2023-09-07T12:40:54;101759.25;;;33.28;36.04
51147;BME280;37207;53.060;18.726;2023-09-07T12:43:21;101755.64;;;33.62;36.05